Time;durP1;ratioP1;P1;durP2;ratioP2;P2;SDS_P1;SDS_P2;PMS_P1;PMS_P2;Temp;Humidity;BMP_temperature;BMP_pressure;BME280_temperature;BME280_humidity;BME280_pressure;Samples;Min_cycle;Max_cycle;Signal;HPM_P1;HPM_P2
2022/05/25 00:02:23;;;;;;;10.02;6.13;;;15.00;99.90;;;;;;5022339;28;20017;-70
2022/05/25 00:04:51;;;;;;;6.90;5.53;;;15.10;99.90;;;;;;5028746;28;20021;-70
2022/05/25 00:07:19;;;;;;;8.48;5.78;;;15.40;99.90;;;;;;5024773;28;20021;-70
2022/05/25 00:09:47;;;;;;;8.25;4.43;;;15.50;99.90;;;;;;5023159;28;20025;-70
2022/05/25 00:12:15;;;;;;;6.85;5.10;;;15.70;99.90;;;;;;5031046;28;20120;-70
2022/05/25 00:14:42;;;;;;;6.82;4.65;;;15.60;99.90;;;;;;5022476;28;20017;-70
2022/05/25 00:17:10;;;;;;;6.20;4.53;;;15.80;99.90;;;;;;5020262;28;20103;-70
2022/05/25 00:22:22;;;;;;;13.27;5.15;;;15.60;99.90;;;;;;5021112;28;20048;-70
2022/05/25 00:24:50;;;;;;;10.23;4.90;;;15.50;99.90;;;;;;5030000;28;20040;-70
2022/05/25 00:27:17;;;;;;;5.90;4.95;;;15.60;99.90;;;;;;5023681;28;20029;-70
2022/05/25 00:29:45;;;;;;;9.10;5.28;;;15.70;99.90;;;;;;5020988;28;20029;-70
2022/05/25 00:32:12;;;;;;;9.18;5.82;;;15.70;99.90;;;;;;5020490;28;20472;-70
2022/05/25 00:34:39;;;;;;;11.88;5.72;;;15.60;99.90;;;;;;5024844;28;20040;-71
2022/05/25 00:37:07;;;;;;;9.52;6.40;;;15.70;99.90;;;;;;5029032;28;20026;-71
2022/05/25 00:39:35;;;;;;;7.70;4.88;;;15.80;99.90;;;;;;5024395;28;20359;-71
2022/05/25 00:42:06;;;;;;;6.25;4.43;;;16.10;99.90;;;;;;5028376;28;20028;-71
2022/05/25 00:44:34;;;;;;;8.50;4.63;;;16.20;99.90;;;;;;5026729;28;20509;-71
2022/05/25 00:47:01;;;;;;;8.00;4.18;;;15.90;99.90;;;;;;5022200;28;20040;-70
2022/05/25 00:49:32;;;;;;;9.05;4.70;;;15.90;99.90;;;;;;5017411;28;20109;-68
2022/05/25 00:52:10;;;;;;;6.72;3.80;;;16.10;99.90;;;;;;5024906;28;20052;-69
2022/05/25 00:54:46;;;;;;;5.97;3.85;;;16.30;99.90;;;;;;5019913;28;20564;-68
2022/05/25 00:57:21;;;;;;;6.50;2.95;;;16.50;99.90;;;;;;5022779;28;20017;-69
2022/05/25 01:00:03;;;;;;;5.80;2.88;;;16.50;99.90;;;;;;5018810;28;20026;-69
2022/05/25 01:02:33;;;;;;;4.15;2.78;;;16.60;99.90;;;;;;5016151;28;20057;-69
2022/05/25 01:05:03;;;;;;;5.53;2.28;;;16.60;99.90;;;;;;5021776;28;20022;-68
2022/05/25 01:08:03;;;;;;;5.78;2.08;;;16.70;99.90;;;;;;5021806;28;20054;-69
2022/05/25 01:10:49;;;;;;;4.25;2.03;;;16.90;99.90;;;;;;5028481;28;20112;-69
2022/05/25 01:13:42;;;;;;;3.42;1.63;;;17.00;99.90;;;;;;5022449;28;20034;-68
2022/05/25 01:16:46;;;;;;;4.35;1.52;;;17.10;99.90;;;;;;5018942;28;20117;-68
2022/05/25 01:19:39;;;;;;;6.45;2.67;;;17.20;99.90;;;;;;5018814;28;20092;-68
2022/05/25 01:22:50;;;;;;;4.32;1.98;;;17.20;99.90;;;;;;5019135;28;20044;-68
2022/05/25 01:25:54;;;;;;;3.88;1.65;;;17.30;99.90;;;;;;5021776;28;20072;-68
2022/05/25 01:28:45;;;;;;;3.40;1.55;;;17.60;99.90;;;;;;5018665;28;20497;-68
2022/05/25 01:31:20;;;;;;;3.88;1.77;;;17.60;99.90;;;;;;5020784;28;20469;-68
2022/05/25 01:34:01;;;;;;;4.32;1.83;;;17.60;99.90;;;;;;5019840;28;20029;-69
2022/05/25 01:37:15;;;;;;;4.28;1.48;;;17.50;99.90;;;;;;5016697;28;20029;-68
2022/05/25 01:39:52;;;;;;;4.95;1.45;;;17.60;99.90;;;;;;5020071;28;20802;-68
2022/05/25 01:42:33;;;;;;;2.00;0.80;;;17.70;99.90;;;;;;5022403;28;20437;-68
2022/05/25 01:45:04;;;;;;;2.75;1.02;;;18.00;99.90;;;;;;5017469;28;20030;-69
2022/05/25 01:47:34;;;;;;;2.67;0.70;;;18.20;99.90;;;;;;5015661;28;20021;-69
2022/05/25 01:50:37;;;;;;;2.60;0.68;;;18.50;99.90;;;;;;5026775;28;20026;-69
2022/05/25 01:53:07;;;;;;;2.58;0.50;;;18.70;99.90;;;;;;5015042;28;20137;-69
2022/05/25 01:55:43;;;;;;;1.05;0.32;;;18.60;99.90;;;;;;5011403;28;20029;-69
2022/05/25 01:58:16;;;;;;;2.70;0.82;;;18.70;99.90;;;;;;5012835;28;20057;-69
2022/05/25 02:00:47;;;;;;;4.47;0.70;;;19.40;99.90;;;;;;5026231;28;20056;-69
2022/05/25 02:06:32;;;;;;;1.80;0.60;;;19.60;99.90;;;;;;5013826;28;20029;-69
2022/05/25 02:09:31;;;;;;;4.28;1.30;;;20.20;99.90;;;;;;5027974;28;20060;-69
2022/05/25 02:12:40;;;;;;;2.25;0.68;;;21.20;99.90;;;;;;5027850;28;20088;-69
2022/05/25 02:15:14;;;;;;;1.83;0.60;;;21.10;99.90;;;;;;5021970;28;20382;-69
2022/05/25 02:18:10;;;;;;;0.65;0.32;;;20.40;99.90;;;;;;5034420;28;20037;-69
2022/05/25 02:20:56;;;;;;;2.80;1.25;;;20.40;99.90;;;;;;5026113;28;20036;-69
2022/05/25 02:23:31;;;;;;;4.25;0.77;;;20.70;99.90;;;;;;5029033;28;20021;-69
2022/05/25 02:26:27;;;;;;;3.55;0.68;;;20.60;99.90;;;;;;5021340;28;20136;-69
2022/05/25 02:29:10;;;;;;;5.25;0.98;;;20.20;99.90;;;;;;5024201;28;20068;-69
2022/05/25 02:31:44;;;;;;;5.13;1.02;;;20.10;99.90;;;;;;5018829;28;20028;-70
2022/05/25 02:34:16;;;;;;;6.65;1.90;;;19.50;99.90;;;;;;5023949;28;20029;-69
2022/05/25 02:36:45;;;;;;;5.28;1.55;;;19.40;99.90;;;;;;5023602;28;20481;-69
2022/05/25 02:39:13;;;;;;;5.28;1.10;;;19.10;99.90;;;;;;5029074;28;20068;-69
2022/05/25 02:41:58;;;;;;;3.75;0.93;;;18.70;99.90;;;;;;5026949;28;20068;-69
2022/05/25 02:44:25;;;;;;;3.20;0.70;;;18.40;99.90;;;;;;5022390;28;20022;-69
2022/05/25 02:46:53;;;;;;;3.97;1.10;;;18.30;99.90;;;;;;5018153;28;20053;-69
2022/05/25 02:49:20;;;;;;;3.95;0.60;;;18.30;99.90;;;;;;5025187;28;20018;-70
2022/05/25 02:51:48;;;;;;;3.33;0.60;;;18.20;99.90;;;;;;5023672;28;20137;-69
2022/05/25 02:54:16;;;;;;;2.25;0.70;;;18.00;99.90;;;;;;5027429;28;20506;-69
2022/05/25 02:56:43;;;;;;;3.00;0.60;;;18.00;99.90;;;;;;5028333;28;20022;-69
2022/05/25 02:59:11;;;;;;;3.60;0.60;;;17.90;99.90;;;;;;5023456;28;20025;-68
2022/05/25 03:01:39;;;;;;;5.65;1.80;;;17.90;99.90;;;;;;5020118;28;20091;-68
2022/05/25 03:04:06;;;;;;;4.70;1.58;;;18.00;99.90;;;;;;5028002;28;20029;-68
2022/05/25 03:06:33;;;;;;;3.75;1.20;;;18.50;99.90;;;;;;5022334;28;20051;-68
2022/05/25 03:09:01;;;;;;;3.97;0.88;;;19.20;99.90;;;;;;5031057;28;20025;-68
2022/05/25 03:11:28;;;;;;;5.05;0.75;;;19.60;99.90;;;;;;5030755;28;20040;-68
2022/05/25 03:13:56;;;;;;;3.50;0.50;;;19.40;99.90;;;;;;5021611;28;20037;-68
2022/05/25 03:16:23;;;;;;;2.17;0.75;;;18.70;99.90;;;;;;5022779;28;20045;-68
2022/05/25 03:18:51;;;;;;;2.08;0.20;;;18.40;99.90;;;;;;5031454;28;20037;-68
2022/05/25 03:21:19;;;;;;;2.28;0.52;;;18.30;99.90;;;;;;5017534;28;20105;-68
2022/05/25 03:23:47;;;;;;;2.33;0.55;;;18.40;99.90;;;;;;5019073;28;20038;-68
2022/05/25 03:26:15;;;;;;;1.80;0.20;;;19.10;99.90;;;;;;5023075;28;20034;-68
2022/05/25 03:28:43;;;;;;;1.63;0.52;;;19.20;99.90;;;;;;5015806;28;20030;-69
2022/05/25 03:31:10;;;;;;;5.55;0.30;;;19.20;99.90;;;;;;5037175;28;20017;-70
2022/05/25 03:33:38;;;;;;;1.95;0.60;;;19.10;99.90;;;;;;5020713;28;20025;-69
2022/05/25 03:36:05;;;;;;;1.90;0.30;;;19.00;99.90;;;;;;5025313;28;20034;-69
2022/05/25 03:38:33;;;;;;;2.38;0.47;;;18.90;99.90;;;;;;5029440;28;20021;-69
2022/05/25 03:41:01;;;;;;;1.48;0.60;;;19.00;99.90;;;;;;5025533;28;20163;-69
2022/05/25 03:43:35;;;;;;;1.58;0.32;;;18.80;99.90;;;;;;5017087;28;20029;-67
2022/05/25 03:46:02;;;;;;;2.45;0.40;;;18.40;99.90;;;;;;5024120;28;20024;-67
2022/05/25 03:48:29;;;;;;;3.65;0.57;;;18.40;99.90;;;;;;5017227;28;20021;-67
2022/05/25 03:50:57;;;;;;;2.72;0.82;;;18.30;99.90;;;;;;5019962;28;20109;-67
2022/05/25 03:53:24;;;;;;;2.53;0.52;;;18.40;99.90;;;;;;5025162;28;20041;-67
2022/05/25 03:55:52;;;;;;;2.58;0.50;;;18.30;99.90;;;;;;5024687;28;20025;-67
2022/05/25 03:58:19;;;;;;;2.75;0.45;;;18.10;99.90;;;;;;5023280;28;20023;-70
2022/05/25 04:00:46;;;;;;;1.30;0.30;;;18.10;99.90;;;;;;5019073;28;20021;-70
2022/05/25 04:03:15;;;;;;;1.83;0.40;;;18.20;99.90;;;;;;5019184;28;20561;-67
2022/05/25 04:05:44;;;;;;;4.28;0.75;;;18.30;99.90;;;;;;5028509;28;20038;-69
2022/05/25 04:08:11;;;;;;;5.32;0.55;;;18.30;99.90;;;;;;5019672;28;20029;-67
2022/05/25 04:10:39;;;;;;;3.63;0.50;;;18.30;99.90;;;;;;5029925;28;20075;-69
2022/05/25 04:13:06;;;;;;;5.75;0.85;;;18.50;99.90;;;;;;5019616;28;20049;-68
2022/05/25 04:15:35;;;;;;;3.97;0.70;;;18.30;99.90;;;;;;5016357;28;20026;-68
2022/05/25 04:18:03;;;;;;;4.15;0.50;;;18.50;99.90;;;;;;5019596;28;20030;-69
2022/05/25 04:20:32;;;;;;;7.25;0.70;;;18.40;99.90;;;;;;5019312;28;20477;-68
2022/05/25 04:23:00;;;;;;;3.47;0.60;;;18.20;99.90;;;;;;5022594;28;20098;-68
2022/05/25 04:25:27;;;;;;;4.60;0.50;;;18.10;99.90;;;;;;5021004;28;20033;-68
2022/05/25 04:27:56;;;;;;;3.55;0.73;;;17.90;99.90;;;;;;5036089;28;20028;-68
2022/05/25 04:30:27;;;;;;;3.28;0.60;;;17.80;99.90;;;;;;5021939;28;20025;-68
2022/05/25 04:32:54;;;;;;;6.55;0.70;;;17.60;99.90;;;;;;5021545;28;20049;-68
2022/05/25 04:35:23;;;;;;;5.47;0.60;;;17.60;99.90;;;;;;5023078;28;20030;-68
2022/05/25 04:37:54;;;;;;;4.18;0.68;;;17.50;99.90;;;;;;5018178;28;20113;-68
2022/05/25 04:40:33;;;;;;;2.28;0.75;;;17.40;99.90;;;;;;5019154;28;20088;-68
2022/05/25 04:43:06;;;;;;;6.18;0.95;;;17.30;99.90;;;;;;5017445;28;20089;-68
2022/05/25 04:45:34;;;;;;;3.53;0.50;;;17.30;99.90;;;;;;5020210;28;20026;-68
2022/05/25 04:48:02;;;;;;;3.78;0.63;;;17.30;99.90;;;;;;5019694;28;20029;-68
2022/05/25 04:50:36;;;;;;;4.60;0.75;;;17.20;99.90;;;;;;5023781;28;20127;-69
2022/05/25 04:53:04;;;;;;;2.40;0.77;;;17.20;99.90;;;;;;5020445;28;20104;-68
2022/05/25 04:58:39;;;;;;;3.35;0.63;;;17.30;99.90;;;;;;5014774;28;20496;-69
2022/05/25 05:01:08;;;;;;;2.83;0.35;;;17.40;99.90;;;;;;5020376;28;20033;-69
2022/05/25 05:03:38;;;;;;;2.22;0.30;;;17.40;99.90;;;;;;5019926;28;20029;-68
2022/05/25 05:06:07;;;;;;;1.92;1.23;;;17.40;99.90;;;;;;5016574;28;20948;-69
2022/05/25 05:08:35;;;;;;;1.85;0.20;;;17.30;99.90;;;;;;5020377;28;20025;-69
2022/05/25 05:11:17;;;;;;;2.30;0.17;;;17.30;99.90;;;;;;5014278;28;20038;-68
2022/05/25 05:13:45;;;;;;;1.25;0.22;;;17.40;99.90;;;;;;5027541;28;20107;-68
2022/05/25 05:16:15;;;;;;;2.00;0.40;;;17.40;99.90;;;;;;5019459;28;20029;-68
2022/05/25 05:18:44;;;;;;;2.05;0.10;;;17.40;99.90;;;;;;5026231;28;20045;-69
2022/05/25 05:21:11;;;;;;;1.70;0.43;;;17.30;99.90;;;;;;5025615;28;20030;-68
2022/05/25 05:23:40;;;;;;;2.95;0.30;;;17.30;99.90;;;;;;5015581;28;20018;-68
2022/05/25 05:26:08;;;;;;;3.78;0.68;;;17.30;99.90;;;;;;5017690;28;20022;-68
2022/05/25 05:28:38;;;;;;;5.93;0.50;;;17.20;99.90;;;;;;5021051;28;20058;-69
2022/05/25 05:31:06;;;;;;;3.08;0.45;;;17.30;99.90;;;;;;5022157;28;20112;-68
2022/05/25 05:33:34;;;;;;;6.25;0.75;;;17.30;99.90;;;;;;5012684;28;20101;-69
2022/05/25 05:36:12;;;;;;;7.28;0.70;;;17.30;99.90;;;;;;5015882;28;21679;-69
2022/05/25 05:38:53;;;;;;;7.13;0.68;;;17.40;99.90;;;;;;5027656;28;20109;-69
2022/05/25 05:41:23;;;;;;;3.33;0.85;;;17.40;99.90;;;;;;5022301;28;20033;-69
2022/05/25 05:43:52;;;;;;;2.30;0.30;;;17.40;99.90;;;;;;5019522;28;20025;-69
2022/05/25 05:46:20;;;;;;;1.92;0.30;;;17.50;99.90;;;;;;5020851;28;20029;-69
2022/05/25 05:48:47;;;;;;;2.47;0.40;;;17.40;99.90;;;;;;5019008;28;20116;-68
2022/05/25 05:51:15;;;;;;;3.97;0.38;;;17.30;99.90;;;;;;5019403;28;20075;-69
2022/05/25 05:53:44;;;;;;;4.18;0.88;;;17.20;99.90;;;;;;5012324;28;20146;-68
2022/05/25 05:56:11;;;;;;;2.17;0.35;;;17.20;99.90;;;;;;5018296;28;20026;-69
2022/05/25 05:58:38;;;;;;;2.50;0.82;;;17.10;99.90;;;;;;5030241;28;20037;-68
2022/05/25 06:01:06;;;;;;;2.70;0.30;;;17.10;99.90;;;;;;5034435;28;20100;-68
2022/05/25 06:03:33;;;;;;;2.92;0.30;;;17.10;99.90;;;;;;5023680;28;20018;-68
2022/05/25 06:06:00;;;;;;;1.67;0.20;;;17.00;99.90;;;;;;5031861;28;20030;-68
2022/05/25 06:08:29;;;;;;;2.47;0.20;;;16.90;99.90;;;;;;5025198;28;20026;-68
2022/05/25 06:10:57;;;;;;;7.85;0.52;;;16.90;99.90;;;;;;5019291;28;20025;-69
2022/05/25 06:13:25;;;;;;;3.05;0.30;;;16.90;99.90;;;;;;5025799;28;20060;-68
2022/05/25 06:21:26;;;;;;;1.90;0.80;;;16.80;99.90;;;;;;5019025;28;20406;-68
2022/05/25 06:23:53;;;;;;;1.02;0.40;;;16.80;99.90;;;;;;5016120;28;20084;-68
2022/05/25 06:26:20;;;;;;;5.50;0.30;;;16.80;99.90;;;;;;5025754;28;20433;-69
2022/05/25 06:28:48;;;;;;;3.83;0.30;;;16.70;99.90;;;;;;5030515;28;20033;-68
2022/05/25 06:31:15;;;;;;;3.67;0.55;;;16.70;99.90;;;;;;5023699;28;20454;-68
2022/05/25 06:33:43;;;;;;;6.80;0.95;;;16.60;99.90;;;;;;5025037;28;20371;-69
2022/05/25 06:36:16;;;;;;;4.43;0.52;;;16.60;99.90;;;;;;5021834;28;20486;-69
2022/05/25 06:38:44;;;;;;;2.17;0.30;;;16.60;99.90;;;;;;5020506;28;20018;-71
2022/05/25 06:41:12;;;;;;;2.47;0.40;;;16.60;99.90;;;;;;5019227;28;20505;-70
2022/05/25 06:43:39;;;;;;;2.35;0.80;;;16.50;99.90;;;;;;5022765;28;20037;-70
2022/05/25 06:46:08;;;;;;;3.42;0.70;;;16.50;99.90;;;;;;5027157;28;20132;-70
2022/05/25 06:48:35;;;;;;;3.33;0.63;;;16.50;99.90;;;;;;5018994;28;20030;-70
2022/05/25 06:51:13;;;;;;;3.58;0.65;;;16.40;99.90;;;;;;5034520;28;20048;-70
2022/05/25 06:53:41;;;;;;;4.65;0.90;;;16.30;99.90;;;;;;5018376;28;20053;-71
2022/05/25 06:56:09;;;;;;;2.75;1.00;;;16.30;99.90;;;;;;5016817;28;20030;-71
2022/05/25 06:58:36;;;;;;;3.63;0.70;;;16.20;99.90;;;;;;5016533;28;20022;-71
2022/05/25 07:01:04;;;;;;;2.50;0.98;;;16.10;99.90;;;;;;5025522;28;20390;-70
2022/05/25 07:03:32;;;;;;;5.63;1.73;;;16.10;99.90;;;;;;5019716;28;20045;-70
2022/05/25 07:06:04;;;;;;;3.95;2.95;;;15.90;99.90;;;;;;5019150;28;20116;-70
2022/05/25 07:08:31;;;;;;;4.13;1.67;;;15.90;99.90;;;;;;5016018;28;20026;-70
2022/05/25 07:11:00;;;;;;;5.40;1.60;;;15.90;99.90;;;;;;5035364;28;20029;-70
2022/05/25 07:13:29;;;;;;;5.88;1.70;;;15.80;99.90;;;;;;5031571;28;20467;-70
2022/05/25 07:16:03;;;;;;;5.68;1.55;;;15.80;99.90;;;;;;5016213;28;20053;-70
2022/05/25 07:18:30;;;;;;;4.22;1.30;;;15.80;99.90;;;;;;5020334;28;20021;-70
2022/05/25 07:21:10;;;;;;;8.77;1.92;;;15.80;99.90;;;;;;5035341;28;20382;-70
2022/05/25 07:23:40;;;;;;;5.05;1.00;;;15.80;99.90;;;;;;5026721;28;20018;-70
2022/05/25 07:26:09;;;;;;;5.95;1.13;;;15.80;99.90;;;;;;5015860;28;20029;-70
2022/05/25 07:28:37;;;;;;;3.47;1.00;;;15.70;99.90;;;;;;5025393;28;20025;-70
2022/05/25 07:31:12;;;;;;;8.18;1.30;;;15.70;99.90;;;;;;5035706;28;20033;-70
2022/05/25 07:33:42;;;;;;;6.22;1.20;;;15.60;99.90;;;;;;5018281;28;20040;-70
2022/05/25 07:36:10;;;;;;;4.88;1.42;;;15.60;99.90;;;;;;5025274;28;20025;-71
2022/05/25 07:38:42;;;;;;;3.38;1.58;;;15.50;99.90;;;;;;5032616;28;20040;-71
2022/05/25 07:41:10;;;;;;;5.65;1.65;;;15.50;99.90;;;;;;5035397;28;20025;-70
2022/05/25 07:43:40;;;;;;;5.60;1.73;;;15.40;99.90;;;;;;5020207;28;20605;-69
2022/05/25 07:46:07;;;;;;;6.15;1.88;;;15.40;99.90;;;;;;5034130;28;20026;-70
2022/05/25 07:48:36;;;;;;;5.55;1.83;;;15.40;99.90;;;;;;5018039;28;20394;-71
2022/05/25 07:51:05;;;;;;;3.50;0.90;;;15.40;99.90;;;;;;5032510;28;20029;-71
2022/05/25 07:56:18;;;;;;;4.10;0.50;;;15.30;99.90;;;;;;5034650;28;20036;-71
2022/05/25 07:58:45;;;;;;;1.63;0.90;;;15.30;99.90;;;;;;5017461;28;20030;-71
2022/05/25 08:05:43;;;;;;;0.73;0.50;;;15.20;99.90;;;;;;5015362;28;20433;-71
2022/05/25 08:06:53;;;;;;;4.07;0.60;;;15.20;99.90;;;;;;5032548;28;20092;-71
2022/05/25 08:09:21;;;;;;;4.68;0.80;;;15.10;99.90;;;;;;5018261;28;20087;-71
2022/05/25 08:11:48;;;;;;;2.20;0.80;;;15.10;99.90;;;;;;5028980;28;20021;-71
2022/05/25 08:14:16;;;;;;;4.72;0.70;;;15.10;99.90;;;;;;5015066;28;20095;-70
2022/05/25 08:16:44;;;;;;;4.57;1.20;;;15.10;99.90;;;;;;5014918;28;20038;-70
2022/05/25 08:19:11;;;;;;;4.95;1.48;;;15.00;99.90;;;;;;5015050;28;20022;-71
2022/05/25 08:21:38;;;;;;;3.15;1.35;;;15.00;99.90;;;;;;5014445;28;20470;-71
2022/05/25 08:24:06;;;;;;;7.78;1.38;;;14.90;99.90;;;;;;5025618;28;20049;-71
2022/05/25 08:26:33;;;;;;;2.13;1.00;;;14.90;99.90;;;;;;5033682;28;20025;-71
2022/05/25 08:29:00;;;;;;;5.43;1.30;;;14.80;99.90;;;;;;5015285;28;20026;-71
2022/05/25 08:31:28;;;;;;;2.72;1.35;;;14.80;99.90;;;;;;5014082;28;20050;-71
2022/05/25 08:33:55;;;;;;;2.60;1.25;;;14.80;99.90;;;;;;5014931;28;20041;-70
2022/05/25 08:36:22;;;;;;;3.97;1.63;;;14.80;99.90;;;;;;5014314;28;20109;-70
2022/05/25 08:38:52;;;;;;;2.92;1.42;;;14.80;99.90;;;;;;5018804;28;20025;-72
2022/05/25 08:41:26;;;;;;;6.60;1.88;;;14.80;99.90;;;;;;5033947;28;20474;-71
2022/05/25 08:43:54;;;;;;;3.17;1.08;;;14.70;99.90;;;;;;5016679;28;20040;-71
2022/05/25 08:46:24;;;;;;;4.38;1.98;;;14.70;99.90;;;;;;5032656;28;20490;-71
2022/05/25 08:48:52;;;;;;;2.90;1.20;;;14.70;99.90;;;;;;5015421;28;20072;-70
2022/05/25 08:51:27;;;;;;;3.78;1.20;;;14.60;99.90;;;;;;5033529;28;20087;-71
2022/05/25 08:53:58;;;;;;;3.55;0.98;;;14.60;99.90;;;;;;5015427;28;20037;-71
2022/05/25 08:56:28;;;;;;;3.42;1.90;;;14.60;99.90;;;;;;5030128;28;20029;-71
2022/05/25 08:59:21;;;;;;;4.18;1.77;;;14.60;99.90;;;;;;5014158;28;20026;-71
2022/05/25 09:02:06;;;;;;;3.85;2.58;;;14.60;99.90;;;;;;5014671;28;20018;-71
2022/05/25 09:04:51;;;;;;;7.90;2.78;;;14.50;99.90;;;;;;5026055;28;20462;-71
2022/05/25 09:07:25;;;;;;;5.47;2.88;;;14.50;99.90;;;;;;5025773;28;20037;-70
2022/05/25 09:09:53;;;;;;;5.95;2.30;;;14.50;99.90;;;;;;5018280;28;20026;-71
2022/05/25 09:12:26;;;;;;;5.93;2.33;;;14.50;99.90;;;;;;5019316;28;20482;-71
2022/05/25 09:15:03;;;;;;;4.35;1.90;;;14.50;99.90;;;;;;5016728;28;20029;-70
2022/05/25 09:17:45;;;;;;;4.88;1.58;;;14.40;99.90;;;;;;5020007;28;20030;-71
2022/05/25 09:20:20;;;;;;;7.50;1.58;;;14.50;99.90;;;;;;5013332;28;20095;-71
2022/05/25 09:22:48;;;;;;;5.50;1.95;;;14.40;99.90;;;;;;5013273;28;20029;-71
2022/05/25 09:25:16;;;;;;;4.63;2.00;;;14.40;99.90;;;;;;5017693;28;20401;-71
2022/05/25 09:27:52;;;;;;;3.38;1.90;;;14.40;99.90;;;;;;5025188;28;20076;-71
2022/05/25 09:30:20;;;;;;;3.53;1.95;;;14.40;99.90;;;;;;5019728;28;20025;-71
2022/05/25 09:33:00;;;;;;;5.18;2.00;;;14.40;99.90;;;;;;5012854;28;20022;-71
2022/05/25 09:35:31;;;;;;;6.53;2.20;;;14.40;99.90;;;;;;5016139;28;20030;-70
2022/05/25 09:38:36;;;;;;;5.50;2.45;;;14.40;99.90;;;;;;5018471;28;20030;-70
2022/05/25 09:41:07;;;;;;;8.68;2.35;;;14.40;99.90;;;;;;4999620;28;20057;-71
2022/05/25 09:43:35;;;;;;;4.57;3.10;;;14.40;99.90;;;;;;5025478;28;20052;-71
2022/05/25 09:46:29;;;;;;;6.50;3.47;;;14.40;99.90;;;;;;5031950;28;20021;-70
2022/05/25 09:49:03;;;;;;;6.25;2.95;;;14.50;99.90;;;;;;5030622;28;20036;-71
2022/05/25 09:51:52;;;;;;;5.50;2.90;;;14.40;99.90;;;;;;5033144;28;20017;-71
2022/05/25 09:54:30;;;;;;;6.28;2.55;;;14.50;99.90;;;;;;5013355;28;20056;-71
2022/05/25 09:57:08;;;;;;;10.63;2.85;;;14.60;99.90;;;;;;5013576;28;20022;-71
2022/05/25 09:59:42;;;;;;;6.55;3.20;;;14.70;99.90;;;;;;5026626;28;20029;-71
2022/05/25 10:02:29;;;;;;;7.85;3.85;;;14.70;99.90;;;;;;5027870;28;20025;-71
2022/05/25 10:05:06;;;;;;;6.65;2.55;;;14.70;99.90;;;;;;5022938;28;20029;-70
2022/05/25 10:07:38;;;;;;;5.45;2.63;;;14.70;99.90;;;;;;5023451;28;20099;-70
2022/05/25 10:10:09;;;;;;;5.97;2.50;;;14.70;99.90;;;;;;5015828;28;20100;-71
2022/05/25 10:12:44;;;;;;;7.30;2.90;;;14.60;99.90;;;;;;5028259;28;20156;-70
2022/05/25 10:15:31;;;;;;;8.45;3.53;;;14.60;99.90;;;;;;5032790;28;20486;-70
2022/05/25 10:17:59;;;;;;;7.97;2.63;;;14.70;99.90;;;;;;5029323;28;20033;-70
2022/05/25 10:20:42;;;;;;;6.50;2.95;;;14.60;99.90;;;;;;5031709;28;20076;-71
2022/05/25 10:23:22;;;;;;;7.20;2.90;;;14.60;99.90;;;;;;5019509;28;20433;-70
2022/05/25 10:26:12;;;;;;;9.65;3.22;;;14.60;99.90;;;;;;5012665;28;20101;-71
2022/05/25 10:29:10;;;;;;;9.50;3.65;;;14.60;99.90;;;;;;5012910;28;20026;-71
2022/05/25 10:37:39;;;;;;;10.55;4.22;;;14.70;99.90;;;;;;5022353;28;20458;-70
2022/05/25 10:40:09;;;;;;;7.40;4.20;;;14.60;99.90;;;;;;5012530;28;20022;-70
2022/05/25 10:42:39;;;;;;;11.32;4.90;;;14.70;99.90;;;;;;5015972;28;20022;-71
2022/05/25 10:45:20;;;;;;;9.48;4.05;;;14.60;99.90;;;;;;5033870;28;20025;-71
2022/05/25 10:47:57;;;;;;;6.65;5.07;;;14.60;99.90;;;;;;5026445;28;20026;-71
2022/05/25 10:50:32;;;;;;;10.30;4.47;;;14.60;99.90;;;;;;5022745;28;20518;-71
2022/05/25 10:53:31;;;;;;;9.52;4.57;;;14.60;99.90;;;;;;5022314;28;20050;-70
2022/05/25 10:56:25;;;;;;;7.20;3.67;;;14.60;99.90;;;;;;5018102;28;20061;-71
2022/05/25 10:58:52;;;;;;;9.95;4.15;;;14.50;99.90;;;;;;5039465;28;20044;-71
2022/05/25 11:01:58;;;;;;;9.80;4.18;;;14.50;99.90;;;;;;5020430;28;20451;-72
2022/05/25 11:04:50;;;;;;;12.05;3.83;;;14.60;99.90;;;;;;5022508;28;20049;-71
2022/05/25 11:07:30;;;;;;;9.93;4.47;;;14.70;99.90;;;;;;5023425;28;20059;-71
2022/05/25 11:10:34;;;;;;;11.70;4.20;;;14.60;99.90;;;;;;5016906;28;20143;-70
2022/05/25 11:13:30;;;;;;;11.48;4.32;;;14.60;99.90;;;;;;5022162;28;20034;-70
2022/05/25 11:16:19;;;;;;;9.15;3.17;;;14.60;99.90;;;;;;5020483;28;20034;-70
2022/05/25 11:18:52;;;;;;;9.80;4.25;;;14.60;99.90;;;;;;5020844;28;20021;-70
2022/05/25 11:21:31;;;;;;;7.20;3.72;;;14.50;99.90;;;;;;5020580;28;20048;-69
2022/05/25 11:24:24;;;;;;;6.75;3.90;;;14.40;99.90;;;;;;5024692;28;20033;-69
2022/05/25 11:27:18;;;;;;;14.32;4.47;;;14.40;99.90;;;;;;5024347;28;20029;-69
2022/05/25 11:30:04;;;;;;;13.85;6.80;;;14.30;99.90;;;;;;5016295;28;20033;-69
2022/05/25 11:32:54;;;;;;;13.18;8.25;;;14.20;99.90;;;;;;5017331;28;20041;-69
2022/05/25 11:35:39;;;;;;;12.35;7.15;;;14.20;99.90;;;;;;5026158;28;20038;-69
2022/05/25 11:38:06;;;;;;;12.73;6.80;;;14.10;99.90;;;;;;5021943;28;20057;-70
2022/05/25 11:41:09;;;;;;;12.05;5.22;;;14.00;99.90;;;;;;5026691;28;20526;-69
2022/05/25 11:44:03;;;;;;;8.23;4.90;;;13.90;99.90;;;;;;5018177;28;20165;-69
2022/05/25 11:46:44;;;;;;;9.68;4.82;;;13.90;99.90;;;;;;5017873;28;20029;-69
2022/05/25 11:49:41;;;;;;;9.98;4.18;;;13.90;99.90;;;;;;5018350;28;20032;-69
2022/05/25 11:52:19;;;;;;;8.30;4.05;;;13.80;99.90;;;;;;5023571;28;20103;-69
2022/05/25 11:55:07;;;;;;;8.20;3.38;;;13.90;99.90;;;;;;5015939;28;20076;-69
2022/05/25 11:58:11;;;;;;;10.25;4.10;;;13.90;99.90;;;;;;5024594;28;20103;-69
2022/05/25 12:00:47;;;;;;;9.10;4.13;;;13.90;99.90;;;;;;5021230;28;20080;-69
2022/05/25 12:03:33;;;;;;;11.00;4.10;;;13.90;99.90;;;;;;5021428;28;20493;-70
2022/05/25 12:06:14;;;;;;;6.10;3.33;;;13.90;99.90;;;;;;5023657;28;20056;-69
2022/05/25 12:09:10;;;;;;;10.65;4.55;;;13.90;99.90;;;;;;5016787;28;20029;-69
2022/05/25 12:11:48;;;;;;;22.48;4.22;;;13.90;99.90;;;;;;5026208;28;20020;-69
2022/05/25 12:14:27;;;;;;;8.88;3.47;;;13.80;99.90;;;;;;5027661;28;20033;-69
2022/05/25 12:17:11;;;;;;;6.18;3.40;;;13.80;99.90;;;;;;5021712;28;20135;-70
2022/05/25 12:19:39;;;;;;;13.45;4.07;;;13.90;99.90;;;;;;5033581;28;20030;-69
2022/05/25 12:22:11;;;;;;;6.78;3.45;;;13.80;99.90;;;;;;5017016;28;20495;-69
2022/05/25 12:24:47;;;;;;;7.20;3.65;;;13.70;99.90;;;;;;5029447;28;20025;-69
2022/05/25 12:27:21;;;;;;;8.43;3.90;;;13.70;99.90;;;;;;5020747;28;20084;-69
2022/05/25 12:29:55;;;;;;;7.85;3.47;;;13.70;99.90;;;;;;5020492;28;20411;-69
2022/05/25 12:32:23;;;;;;;10.52;3.95;;;13.60;99.90;;;;;;5025872;28;20438;-69
2022/05/25 12:34:54;;;;;;;7.05;3.33;;;13.60;99.90;;;;;;5022158;28;20490;-69
2022/05/25 12:37:32;;;;;;;8.48;3.70;;;13.70;99.90;;;;;;5021091;28;20036;-70
2022/05/25 12:40:00;;;;;;;7.60;4.07;;;13.70;99.90;;;;;;5023780;28;20033;-71
2022/05/25 12:42:28;;;;;;;8.40;3.33;;;13.60;99.90;;;;;;5027964;28;20083;-71
2022/05/25 12:50:52;;;;;;;9.65;3.97;;;13.60;99.90;;;;;;5024341;28;20551;-70
2022/05/25 12:53:37;;;;;;;5.68;3.35;;;13.60;99.90;;;;;;5014997;28;20042;-70
2022/05/25 12:56:19;;;;;;;6.63;3.95;;;13.60;99.90;;;;;;5019027;28;20095;-70
2022/05/25 12:58:52;;;;;;;9.63;5.05;;;13.70;99.90;;;;;;5024581;28;20040;-70
2022/05/25 13:01:29;;;;;;;12.70;4.50;;;13.60;99.90;;;;;;5029028;28;20478;-71
2022/05/25 13:03:57;;;;;;;13.73;5.05;;;13.60;99.90;;;;;;5023615;28;20108;-70
2022/05/25 13:06:37;;;;;;;6.82;4.65;;;13.60;99.90;;;;;;5030592;28;20028;-71
2022/05/25 13:09:11;;;;;;;9.73;4.85;;;13.60;99.90;;;;;;5020732;28;20017;-70
2022/05/25 13:11:58;;;;;;;11.25;4.72;;;13.50;99.90;;;;;;5025460;28;20112;-70
2022/05/25 13:14:26;;;;;;;10.63;4.47;;;13.50;99.90;;;;;;5019413;28;20041;-70
2022/05/25 13:17:03;;;;;;;7.57;4.88;;;13.50;99.90;;;;;;5022794;28;20025;-71
2022/05/25 13:19:30;;;;;;;10.15;5.28;;;13.40;99.90;;;;;;5024518;28;20022;-71
2022/05/25 13:22:06;;;;;;;11.88;5.32;;;13.40;99.90;;;;;;5023657;28;20049;-71
2022/05/25 13:25:04;;;;;;;7.85;4.32;;;13.40;99.90;;;;;;5017005;28;20054;-71
2022/05/25 13:28:02;;;;;;;14.55;5.45;;;13.30;99.90;;;;;;5014889;28;20032;-70
2022/05/25 13:30:49;;;;;;;8.13;4.25;;;13.30;99.90;;;;;;5015739;28;20033;-70
2022/05/25 13:33:38;;;;;;;10.48;5.03;;;13.30;99.90;;;;;;5023393;28;20061;-70
2022/05/25 13:36:25;;;;;;;10.52;4.85;;;13.30;99.90;;;;;;5025191;28;20040;-69
2022/05/25 13:38:54;;;;;;;10.05;4.75;;;13.30;99.90;;;;;;5016352;28;20816;-68
2022/05/25 13:41:29;;;;;;;6.45;4.20;;;13.20;99.90;;;;;;5020942;28;20025;-69
2022/05/25 13:43:56;;;;;;;;;;;13.20;99.90;;;;;;5018298;28;20032;-69
2022/05/25 13:46:31;;;;;;;8.13;4.82;;;13.20;99.90;;;;;;5018527;28;20378;-68
2022/05/25 13:48:59;;;;;;;9.88;4.72;;;13.20;99.90;;;;;;5025473;28;20056;-69
2022/05/25 13:51:27;;;;;;;9.48;5.05;;;13.20;99.90;;;;;;5018323;28;20121;-69
2022/05/25 13:53:54;;;;;;;8.32;4.40;;;13.20;99.90;;;;;;5021121;28;20056;-69
2022/05/25 13:56:36;;;;;;;12.25;4.65;;;13.20;99.90;;;;;;5021246;28;20026;-69